sensor_id;sensor_type;location;lat;lon;timestamp;temperature;humidity
25058;DHT22;13057;50.978;11.034;2023-04-06T00:01:10;3.50;93.80
25058;DHT22;13057;50.978;11.034;2023-04-06T00:03:37;3.40;93.60
25058;DHT22;13057;50.978;11.034;2023-04-06T00:06:03;3.40;93.80
25058;DHT22;13057;50.978;11.034;2023-04-06T00:08:29;3.40;94.10
25058;DHT22;13057;50.978;11.034;2023-04-06T00:10:54;3.40;94.20
25058;DHT22;13057;50.978;11.034;2023-04-06T00:13:21;3.30;94.60
25058;DHT22;13057;50.978;11.034;2023-04-06T00:15:46;3.40;94.80
25058;DHT22;13057;50.978;11.034;2023-04-06T00:18:12;3.30;94.60
25058;DHT22;13057;50.978;11.034;2023-04-06T00:20:39;3.30;94.80
25058;DHT22;13057;50.978;11.034;2023-04-06T00:23:06;3.20;95.00
25058;DHT22;13057;50.978;11.034;2023-04-06T00:25:31;3.10;95.30
25058;DHT22;13057;50.978;11.034;2023-04-06T00:27:57;3.10;95.50
25058;DHT22;13057;50.978;11.034;2023-04-06T00:30:23;3.00;95.70
25058;DHT22;13057;50.978;11.034;2023-04-06T00:32:49;3.00;96.00
25058;DHT22;13057;50.978;11.034;2023-04-06T00:35:15;2.90;95.90
25058;DHT22;13057;50.978;11.034;2023-04-06T00:37:41;2.90;96.10
25058;DHT22;13057;50.978;11.034;2023-04-06T00:40:08;2.80;96.10
25058;DHT22;13057;50.978;11.034;2023-04-06T00:42:34;2.80;96.20
25058;DHT22;13057;50.978;11.034;2023-04-06T00:45:01;2.70;96.30
25058;DHT22;13057;50.978;11.034;2023-04-06T00:47:27;2.70;96.40
25058;DHT22;13057;50.978;11.034;2023-04-06T00:49:54;2.70;96.50
25058;DHT22;13057;50.978;11.034;2023-04-06T00:52:20;2.70;96.40
25058;DHT22;13057;50.978;11.034;2023-04-06T00:54:46;2.70;96.50
25058;DHT22;13057;50.978;11.034;2023-04-06T00:57:13;2.60;96.50
25058;DHT22;13057;50.978;11.034;2023-04-06T00:59:39;2.60;96.40
25058;DHT22;13057;50.978;11.034;2023-04-06T01:02:06;2.50;96.60
25058;DHT22;13057;50.978;11.034;2023-04-06T01:04:32;2.50;96.70
25058;DHT22;13057;50.978;11.034;2023-04-06T01:07:00;2.50;96.80
25058;DHT22;13057;50.978;11.034;2023-04-06T01:09:28;2.50;96.80
25058;DHT22;13057;50.978;11.034;2023-04-06T01:11:56;2.50;96.90
25058;DHT22;13057;50.978;11.034;2023-04-06T01:14:23;2.50;96.70
25058;DHT22;13057;50.978;11.034;2023-04-06T01:16:49;2.50;97.00
25058;DHT22;13057;50.978;11.034;2023-04-06T01:19:15;2.50;97.00
25058;DHT22;13057;50.978;11.034;2023-04-06T01:21:41;2.40;96.90
25058;DHT22;13057;50.978;11.034;2023-04-06T01:24:08;2.40;97.00
25058;DHT22;13057;50.978;11.034;2023-04-06T01:26:35;2.40;97.00
25058;DHT22;13057;50.978;11.034;2023-04-06T01:29:02;2.30;97.00
25058;DHT22;13057;50.978;11.034;2023-04-06T01:31:28;2.30;97.10
25058;DHT22;13057;50.978;11.034;2023-04-06T01:33:54;2.30;97.30
25058;DHT22;13057;50.978;11.034;2023-04-06T01:36:20;2.30;97.40
25058;DHT22;13057;50.978;11.034;2023-04-06T01:38:46;2.30;97.40
25058;DHT22;13057;50.978;11.034;2023-04-06T01:41:12;2.30;97.50
25058;DHT22;13057;50.978;11.034;2023-04-06T01:43:38;2.30;97.50
25058;DHT22;13057;50.978;11.034;2023-04-06T01:46:04;2.20;97.30
25058;DHT22;13057;50.978;11.034;2023-04-06T01:48:31;2.20;97.60
25058;DHT22;13057;50.978;11.034;2023-04-06T01:50:57;2.30;97.60
25058;DHT22;13057;50.978;11.034;2023-04-06T01:53:23;2.30;97.50
25058;DHT22;13057;50.978;11.034;2023-04-06T01:55:49;2.30;97.40
25058;DHT22;13057;50.978;11.034;2023-04-06T01:58:14;2.30;97.30
25058;DHT22;13057;50.978;11.034;2023-04-06T02:00:40;2.20;97.40
25058;DHT22;13057;50.978;11.034;2023-04-06T02:03:06;2.20;97.30
25058;DHT22;13057;50.978;11.034;2023-04-06T02:05:33;2.20;97.60
25058;DHT22;13057;50.978;11.034;2023-04-06T02:08:04;2.20;97.30
25058;DHT22;13057;50.978;11.034;2023-04-06T02:10:31;2.20;97.50
25058;DHT22;13057;50.978;11.034;2023-04-06T02:12:57;2.20;97.50
25058;DHT22;13057;50.978;11.034;2023-04-06T02:15:24;2.20;97.50
25058;DHT22;13057;50.978;11.034;2023-04-06T02:17:50;2.20;97.60
25058;DHT22;13057;50.978;11.034;2023-04-06T02:20:16;2.20;97.50
25058;DHT22;13057;50.978;11.034;2023-04-06T02:22:42;2.20;97.60
25058;DHT22;13057;50.978;11.034;2023-04-06T02:25:08;2.20;97.40
25058;DHT22;13057;50.978;11.034;2023-04-06T02:27:35;2.20;97.50
25058;DHT22;13057;50.978;11.034;2023-04-06T02:30:03;2.20;97.50
25058;DHT22;13057;50.978;11.034;2023-04-06T02:32:29;2.20;97.40
25058;DHT22;13057;50.978;11.034;2023-04-06T02:34:54;2.20;97.50
25058;DHT22;13057;50.978;11.034;2023-04-06T02:37:20;2.20;97.40
25058;DHT22;13057;50.978;11.034;2023-04-06T02:39:47;2.20;97.30
25058;DHT22;13057;50.978;11.034;2023-04-06T02:42:13;2.20;97.60
25058;DHT22;13057;50.978;11.034;2023-04-06T02:44:41;2.20;97.50
25058;DHT22;13057;50.978;11.034;2023-04-06T02:47:07;2.20;97.40
25058;DHT22;13057;50.978;11.034;2023-04-06T02:49:33;2.20;97.50
25058;DHT22;13057;50.978;11.034;2023-04-06T02:51:59;2.20;97.60
25058;DHT22;13057;50.978;11.034;2023-04-06T02:54:25;2.20;97.60
25058;DHT22;13057;50.978;11.034;2023-04-06T02:56:51;2.20;97.70
25058;DHT22;13057;50.978;11.034;2023-04-06T02:59:17;2.10;97.60
25058;DHT22;13057;50.978;11.034;2023-04-06T03:01:43;2.10;97.60
25058;DHT22;13057;50.978;11.034;2023-04-06T03:04:09;2.20;97.70
25058;DHT22;13057;50.978;11.034;2023-04-06T03:06:34;2.20;97.80
25058;DHT22;13057;50.978;11.034;2023-04-06T03:09:00;2.10;97.70
25058;DHT22;13057;50.978;11.034;2023-04-06T03:11:26;2.10;97.90
25058;DHT22;13057;50.978;11.034;2023-04-06T03:13:52;2.10;98.10
25058;DHT22;13057;50.978;11.034;2023-04-06T03:16:18;2.00;98.10
25058;DHT22;13057;50.978;11.034;2023-04-06T03:18:44;2.00;98.30
25058;DHT22;13057;50.978;11.034;2023-04-06T03:21:12;1.90;98.20
25058;DHT22;13057;50.978;11.034;2023-04-06T03:23:40;2.00;98.20
25058;DHT22;13057;50.978;11.034;2023-04-06T03:26:07;1.90;98.20
25058;DHT22;13057;50.978;11.034;2023-04-06T03:28:32;1.90;98.30
25058;DHT22;13057;50.978;11.034;2023-04-06T03:30:58;1.90;98.50
25058;DHT22;13057;50.978;11.034;2023-04-06T03:33:25;1.90;98.40
25058;DHT22;13057;50.978;11.034;2023-04-06T03:35:53;1.90;98.30
25058;DHT22;13057;50.978;11.034;2023-04-06T03:38:19;1.90;98.20
25058;DHT22;13057;50.978;11.034;2023-04-06T03:40:45;1.90;97.80
25058;DHT22;13057;50.978;11.034;2023-04-06T03:43:11;1.90;97.90
25058;DHT22;13057;50.978;11.034;2023-04-06T03:45:37;1.90;98.00
25058;DHT22;13057;50.978;11.034;2023-04-06T03:48:03;1.90;98.20
25058;DHT22;13057;50.978;11.034;2023-04-06T03:50:29;1.90;98.20
25058;DHT22;13057;50.978;11.034;2023-04-06T03:52:55;1.90;98.00
25058;DHT22;13057;50.978;11.034;2023-04-06T03:55:21;2.00;98.10
25058;DHT22;13057;50.978;11.034;2023-04-06T03:57:47;2.00;98.20
25058;DHT22;13057;50.978;11.034;2023-04-06T04:00:13;2.00;98.00
25058;DHT22;13057;50.978;11.034;2023-04-06T04:02:39;2.00;98.20
25058;DHT22;13057;50.978;11.034;2023-04-06T04:05:05;2.10;97.90
25058;DHT22;13057;50.978;11.034;2023-04-06T04:07:31;2.00;98.00
25058;DHT22;13057;50.978;11.034;2023-04-06T04:09:57;2.00;97.80
25058;DHT22;13057;50.978;11.034;2023-04-06T04:12:23;2.10;97.80
25058;DHT22;13057;50.978;11.034;2023-04-06T04:14:49;2.10;97.90
25058;DHT22;13057;50.978;11.034;2023-04-06T04:17:15;2.10;98.00
25058;DHT22;13057;50.978;11.034;2023-04-06T04:19:41;2.20;98.00
25058;DHT22;13057;50.978;11.034;2023-04-06T04:22:06;2.20;98.40
25058;DHT22;13057;50.978;11.034;2023-04-06T04:24:33;2.20;98.10
25058;DHT22;13057;50.978;11.034;2023-04-06T04:26:59;2.20;98.30
25058;DHT22;13057;50.978;11.034;2023-04-06T04:29:26;2.20;98.20
25058;DHT22;13057;50.978;11.034;2023-04-06T04:31:52;2.20;98.30
25058;DHT22;13057;50.978;11.034;2023-04-06T04:34:18;2.20;98.80
25058;DHT22;13057;50.978;11.034;2023-04-06T04:36:46;2.20;98.70
25058;DHT22;13057;50.978;11.034;2023-04-06T04:39:12;2.20;98.60
25058;DHT22;13057;50.978;11.034;2023-04-06T04:41:38;2.20;98.50
25058;DHT22;13057;50.978;11.034;2023-04-06T04:44:04;2.10;98.50
25058;DHT22;13057;50.978;11.034;2023-04-06T04:46:30;2.10;98.70
25058;DHT22;13057;50.978;11.034;2023-04-06T04:48:56;2.10;98.90
25058;DHT22;13057;50.978;11.034;2023-04-06T04:51:22;2.10;99.20
25058;DHT22;13057;50.978;11.034;2023-04-06T04:53:48;2.00;99.50
25058;DHT22;13057;50.978;11.034;2023-04-06T04:56:14;2.10;99.40
25058;DHT22;13057;50.978;11.034;2023-04-06T04:58:40;2.10;99.50
25058;DHT22;13057;50.978;11.034;2023-04-06T05:01:06;2.10;99.60
25058;DHT22;13057;50.978;11.034;2023-04-06T05:03:32;2.10;99.80
25058;DHT22;13057;50.978;11.034;2023-04-06T05:05:58;2.10;99.70
25058;DHT22;13057;50.978;11.034;2023-04-06T05:08:24;2.20;99.90
25058;DHT22;13057;50.978;11.034;2023-04-06T05:10:50;2.20;99.90
25058;DHT22;13057;50.978;11.034;2023-04-06T05:13:16;2.20;99.90
25058;DHT22;13057;50.978;11.034;2023-04-06T05:15:42;2.10;99.90
25058;DHT22;13057;50.978;11.034;2023-04-06T05:18:08;2.20;99.90
25058;DHT22;13057;50.978;11.034;2023-04-06T05:20:35;2.20;99.90
25058;DHT22;13057;50.978;11.034;2023-04-06T05:23:01;2.20;99.90
25058;DHT22;13057;50.978;11.034;2023-04-06T05:25:27;2.30;99.90
25058;DHT22;13057;50.978;11.034;2023-04-06T05:27:53;2.30;99.90
25058;DHT22;13057;50.978;11.034;2023-04-06T05:30:20;2.30;99.90
25058;DHT22;13057;50.978;11.034;2023-04-06T05:32:47;2.40;99.90
25058;DHT22;13057;50.978;11.034;2023-04-06T05:35:12;2.40;99.90
25058;DHT22;13057;50.978;11.034;2023-04-06T05:37:39;2.40;99.90
25058;DHT22;13057;50.978;11.034;2023-04-06T05:40:05;2.40;99.90
25058;DHT22;13057;50.978;11.034;2023-04-06T05:42:40;2.50;99.90
25058;DHT22;13057;50.978;11.034;2023-04-06T05:45:07;2.50;99.90
25058;DHT22;13057;50.978;11.034;2023-04-06T05:47:38;2.50;99.90
25058;DHT22;13057;50.978;11.034;2023-04-06T05:50:05;2.40;99.90
25058;DHT22;13057;50.978;11.034;2023-04-06T05:52:31;2.50;99.90
25058;DHT22;13057;50.978;11.034;2023-04-06T05:54:57;2.50;99.90
25058;DHT22;13057;50.978;11.034;2023-04-06T05:57:23;2.50;99.90
25058;DHT22;13057;50.978;11.034;2023-04-06T05:59:49;2.50;99.90
25058;DHT22;13057;50.978;11.034;2023-04-06T06:02:15;2.50;99.90
25058;DHT22;13057;50.978;11.034;2023-04-06T06:04:40;2.50;99.90
25058;DHT22;13057;50.978;11.034;2023-04-06T06:07:06;2.60;99.90
25058;DHT22;13057;50.978;11.034;2023-04-06T06:09:32;2.70;99.90
25058;DHT22;13057;50.978;11.034;2023-04-06T06:11:59;2.80;99.90
25058;DHT22;13057;50.978;11.034;2023-04-06T06:14:25;2.80;99.80
25058;DHT22;13057;50.978;11.034;2023-04-06T06:16:54;2.90;99.40
25058;DHT22;13057;50.978;11.034;2023-04-06T06:19:20;2.90;99.40
25058;DHT22;13057;50.978;11.034;2023-04-06T06:21:49;3.00;98.80
25058;DHT22;13057;50.978;11.034;2023-04-06T06:24:15;3.00;98.80
25058;DHT22;13057;50.978;11.034;2023-04-06T06:26:41;3.10;98.50
25058;DHT22;13057;50.978;11.034;2023-04-06T06:29:07;3.10;98.40
25058;DHT22;13057;50.978;11.034;2023-04-06T06:31:33;3.20;98.10
25058;DHT22;13057;50.978;11.034;2023-04-06T06:33:59;3.30;97.90
25058;DHT22;13057;50.978;11.034;2023-04-06T06:36:25;3.30;97.70
25058;DHT22;13057;50.978;11.034;2023-04-06T06:38:51;3.30;97.50
25058;DHT22;13057;50.978;11.034;2023-04-06T06:41:17;3.40;97.50
25058;DHT22;13057;50.978;11.034;2023-04-06T06:43:43;3.50;97.60
25058;DHT22;13057;50.978;11.034;2023-04-06T06:46:09;3.50;97.30
25058;DHT22;13057;50.978;11.034;2023-04-06T06:48:35;3.60;97.10
25058;DHT22;13057;50.978;11.034;2023-04-06T06:51:01;3.60;97.30
25058;DHT22;13057;50.978;11.034;2023-04-06T06:53:27;3.70;97.50
25058;DHT22;13057;50.978;11.034;2023-04-06T06:55:53;3.80;97.70
25058;DHT22;13057;50.978;11.034;2023-04-06T06:58:19;3.80;97.50
25058;DHT22;13057;50.978;11.034;2023-04-06T07:00:46;3.90;97.00
25058;DHT22;13057;50.978;11.034;2023-04-06T07:03:12;3.90;96.80
25058;DHT22;13057;50.978;11.034;2023-04-06T07:05:38;4.00;96.80
25058;DHT22;13057;50.978;11.034;2023-04-06T07:08:04;4.10;96.80
25058;DHT22;13057;50.978;11.034;2023-04-06T07:10:30;4.20;96.30
25058;DHT22;13057;50.978;11.034;2023-04-06T07:12:56;4.30;96.00
25058;DHT22;13057;50.978;11.034;2023-04-06T07:15:22;4.40;95.70
25058;DHT22;13057;50.978;11.034;2023-04-06T07:17:48;4.60;95.90
25058;DHT22;13057;50.978;11.034;2023-04-06T07:20:14;4.70;95.50
25058;DHT22;13057;50.978;11.034;2023-04-06T07:22:42;4.80;95.10
25058;DHT22;13057;50.978;11.034;2023-04-06T07:25:10;5.00;94.90
25058;DHT22;13057;50.978;11.034;2023-04-06T07:27:36;5.20;95.00
25058;DHT22;13057;50.978;11.034;2023-04-06T07:30:02;5.30;94.30
25058;DHT22;13057;50.978;11.034;2023-04-06T07:32:28;5.40;94.10
25058;DHT22;13057;50.978;11.034;2023-04-06T07:34:55;5.60;94.10
25058;DHT22;13057;50.978;11.034;2023-04-06T07:37:21;5.60;93.70
25058;DHT22;13057;50.978;11.034;2023-04-06T07:39:47;5.70;93.60
25058;DHT22;13057;50.978;11.034;2023-04-06T07:42:13;5.80;93.20
25058;DHT22;13057;50.978;11.034;2023-04-06T07:44:39;5.90;93.10
25058;DHT22;13057;50.978;11.034;2023-04-06T07:47:05;6.00;93.20
25058;DHT22;13057;50.978;11.034;2023-04-06T07:49:30;6.10;93.50
25058;DHT22;13057;50.978;11.034;2023-04-06T07:51:58;6.20;93.50
25058;DHT22;13057;50.978;11.034;2023-04-06T07:54:24;6.30;93.60
25058;DHT22;13057;50.978;11.034;2023-04-06T07:56:50;6.40;93.40
25058;DHT22;13057;50.978;11.034;2023-04-06T07:59:16;6.50;93.50
25058;DHT22;13057;50.978;11.034;2023-04-06T08:01:42;6.70;93.10
25058;DHT22;13057;50.978;11.034;2023-04-06T08:04:08;6.80;92.50
25058;DHT22;13057;50.978;11.034;2023-04-06T08:06:34;6.80;92.10
25058;DHT22;13057;50.978;11.034;2023-04-06T08:09:04;6.90;91.90
25058;DHT22;13057;50.978;11.034;2023-04-06T08:11:31;7.00;91.90
25058;DHT22;13057;50.978;11.034;2023-04-06T08:13:58;7.00;91.70
25058;DHT22;13057;50.978;11.034;2023-04-06T08:16:24;7.10;91.80
25058;DHT22;13057;50.978;11.034;2023-04-06T08:18:50;7.10;91.40
25058;DHT22;13057;50.978;11.034;2023-04-06T08:21:16;7.10;91.50
25058;DHT22;13057;50.978;11.034;2023-04-06T08:23:42;7.20;91.50
25058;DHT22;13057;50.978;11.034;2023-04-06T08:26:08;7.30;91.10
25058;DHT22;13057;50.978;11.034;2023-04-06T08:28:34;7.30;90.60
25058;DHT22;13057;50.978;11.034;2023-04-06T08:31:04;7.50;90.50
25058;DHT22;13057;50.978;11.034;2023-04-06T08:33:30;7.50;90.20
25058;DHT22;13057;50.978;11.034;2023-04-06T08:35:56;7.60;90.30
25058;DHT22;13057;50.978;11.034;2023-04-06T08:38:22;7.70;90.20
25058;DHT22;13057;50.978;11.034;2023-04-06T08:40:49;7.70;90.00
25058;DHT22;13057;50.978;11.034;2023-04-06T08:43:17;7.80;90.00
25058;DHT22;13057;50.978;11.034;2023-04-06T08:45:45;7.90;88.50
25058;DHT22;13057;50.978;11.034;2023-04-06T08:48:11;8.00;87.80
25058;DHT22;13057;50.978;11.034;2023-04-06T08:50:38;8.10;88.30
25058;DHT22;13057;50.978;11.034;2023-04-06T08:53:06;8.20;88.60
25058;DHT22;13057;50.978;11.034;2023-04-06T08:55:33;8.30;87.50
25058;DHT22;13057;50.978;11.034;2023-04-06T08:58:00;8.30;86.00
25058;DHT22;13057;50.978;11.034;2023-04-06T09:00:27;8.40;84.20
25058;DHT22;13057;50.978;11.034;2023-04-06T09:02:55;8.40;83.50
25058;DHT22;13057;50.978;11.034;2023-04-06T09:05:22;8.40;83.50
25058;DHT22;13057;50.978;11.034;2023-04-06T09:07:50;8.40;83.60
25058;DHT22;13057;50.978;11.034;2023-04-06T09:10:16;8.50;85.20
25058;DHT22;13057;50.978;11.034;2023-04-06T09:12:42;8.60;80.10
25058;DHT22;13057;50.978;11.034;2023-04-06T09:15:19;8.80;78.80
25058;DHT22;13057;50.978;11.034;2023-04-06T09:17:45;8.90;77.00
25058;DHT22;13057;50.978;11.034;2023-04-06T09:20:11;8.90;73.60
25058;DHT22;13057;50.978;11.034;2023-04-06T09:22:39;8.90;73.40
25058;DHT22;13057;50.978;11.034;2023-04-06T09:25:07;9.00;75.10
25058;DHT22;13057;50.978;11.034;2023-04-06T09:27:35;9.20;77.70
25058;DHT22;13057;50.978;11.034;2023-04-06T09:30:07;9.50;75.90
25058;DHT22;13057;50.978;11.034;2023-04-06T09:32:46;9.70;71.70
25058;DHT22;13057;50.978;11.034;2023-04-06T09:35:13;9.80;71.60
25058;DHT22;13057;50.978;11.034;2023-04-06T09:37:42;9.80;72.90
25058;DHT22;13057;50.978;11.034;2023-04-06T09:40:09;10.10;74.50
25058;DHT22;13057;50.978;11.034;2023-04-06T09:42:35;10.30;72.80
25058;DHT22;13057;50.978;11.034;2023-04-06T09:45:02;10.40;71.20
25058;DHT22;13057;50.978;11.034;2023-04-06T09:47:30;10.40;70.70
25058;DHT22;13057;50.978;11.034;2023-04-06T09:49:57;10.50;70.80
25058;DHT22;13057;50.978;11.034;2023-04-06T09:52:33;10.70;72.70
25058;DHT22;13057;50.978;11.034;2023-04-06T09:55:02;11.00;72.50
25058;DHT22;13057;50.978;11.034;2023-04-06T09:57:32;11.30;72.20
25058;DHT22;13057;50.978;11.034;2023-04-06T10:00:07;11.40;69.90
25058;DHT22;13057;50.978;11.034;2023-04-06T10:02:55;11.40;69.40
25058;DHT22;13057;50.978;11.034;2023-04-06T10:05:31;11.60;71.70
25058;DHT22;13057;50.978;11.034;2023-04-06T10:08:04;11.80;70.90
25058;DHT22;13057;50.978;11.034;2023-04-06T10:10:31;12.00;69.20
25058;DHT22;13057;50.978;11.034;2023-04-06T10:12:57;12.00;69.00
25058;DHT22;13057;50.978;11.034;2023-04-06T10:15:24;12.00;67.30
25058;DHT22;13057;50.978;11.034;2023-04-06T10:17:50;12.10;69.30
25058;DHT22;13057;50.978;11.034;2023-04-06T10:20:29;12.20;68.30
25058;DHT22;13057;50.978;11.034;2023-04-06T10:23:06;12.30;68.70
25058;DHT22;13057;50.978;11.034;2023-04-06T10:25:34;12.40;67.30
25058;DHT22;13057;50.978;11.034;2023-04-06T10:28:08;12.40;68.10
25058;DHT22;13057;50.978;11.034;2023-04-06T10:30:34;12.50;66.80
25058;DHT22;13057;50.978;11.034;2023-04-06T10:33:13;12.40;65.80
25058;DHT22;13057;50.978;11.034;2023-04-06T10:35:40;12.40;67.00
25058;DHT22;13057;50.978;11.034;2023-04-06T10:38:06;12.50;67.30
25058;DHT22;13057;50.978;11.034;2023-04-06T10:40:36;12.50;65.60
25058;DHT22;13057;50.978;11.034;2023-04-06T10:43:10;12.40;65.00
25058;DHT22;13057;50.978;11.034;2023-04-06T10:45:36;12.30;63.40
25058;DHT22;13057;50.978;11.034;2023-04-06T10:48:14;12.20;62.60
25058;DHT22;13057;50.978;11.034;2023-04-06T10:50:47;12.40;65.50
25058;DHT22;13057;50.978;11.034;2023-04-06T10:53:22;12.40;66.40
25058;DHT22;13057;50.978;11.034;2023-04-06T10:55:51;12.50;65.10
25058;DHT22;13057;50.978;11.034;2023-04-06T10:58:17;12.50;63.30
25058;DHT22;13057;50.978;11.034;2023-04-06T11:00:46;12.60;63.70
25058;DHT22;13057;50.978;11.034;2023-04-06T11:03:12;12.60;64.60
25058;DHT22;13057;50.978;11.034;2023-04-06T11:05:38;12.60;63.60
25058;DHT22;13057;50.978;11.034;2023-04-06T11:08:04;12.50;62.20
25058;DHT22;13057;50.978;11.034;2023-04-06T11:10:30;12.40;62.90
25058;DHT22;13057;50.978;11.034;2023-04-06T11:12:56;12.30;61.50
25058;DHT22;13057;50.978;11.034;2023-04-06T11:15:23;12.20;61.50
25058;DHT22;13057;50.978;11.034;2023-04-06T11:17:49;12.20;62.00
25058;DHT22;13057;50.978;11.034;2023-04-06T11:20:16;12.30;61.60
25058;DHT22;13057;50.978;11.034;2023-04-06T11:22:49;12.30;63.20
25058;DHT22;13057;50.978;11.034;2023-04-06T11:25:15;12.40;64.20
25058;DHT22;13057;50.978;11.034;2023-04-06T11:27:43;12.50;63.60
25058;DHT22;13057;50.978;11.034;2023-04-06T11:30:10;12.60;63.00
25058;DHT22;13057;50.978;11.034;2023-04-06T11:32:40;12.60;62.70
25058;DHT22;13057;50.978;11.034;2023-04-06T11:35:11;12.60;63.00
25058;DHT22;13057;50.978;11.034;2023-04-06T11:37:38;12.60;62.70
25058;DHT22;13057;50.978;11.034;2023-04-06T11:40:08;12.60;61.10
25058;DHT22;13057;50.978;11.034;2023-04-06T11:42:34;12.60;61.50
25058;DHT22;13057;50.978;11.034;2023-04-06T11:45:01;12.60;62.50
25058;DHT22;13057;50.978;11.034;2023-04-06T11:47:31;12.60;60.00
25058;DHT22;13057;50.978;11.034;2023-04-06T11:50:06;12.50;58.90
25058;DHT22;13057;50.978;11.034;2023-04-06T11:52:33;12.50;60.40
25058;DHT22;13057;50.978;11.034;2023-04-06T11:55:09;12.50;60.00
25058;DHT22;13057;50.978;11.034;2023-04-06T11:57:35;12.50;60.90
25058;DHT22;13057;50.978;11.034;2023-04-06T12:00:01;12.60;60.50
25058;DHT22;13057;50.978;11.034;2023-04-06T12:02:27;12.60;60.90
25058;DHT22;13057;50.978;11.034;2023-04-06T12:04:53;12.60;60.30
25058;DHT22;13057;50.978;11.034;2023-04-06T12:07:18;12.60;60.40
25058;DHT22;13057;50.978;11.034;2023-04-06T12:09:44;12.60;58.70
25058;DHT22;13057;50.978;11.034;2023-04-06T12:12:10;12.60;58.10
25058;DHT22;13057;50.978;11.034;2023-04-06T12:14:37;12.40;58.90
25058;DHT22;13057;50.978;11.034;2023-04-06T12:17:02;12.30;59.20
25058;DHT22;13057;50.978;11.034;2023-04-06T12:19:28;12.40;60.60
25058;DHT22;13057;50.978;11.034;2023-04-06T12:21:54;12.50;60.70
25058;DHT22;13057;50.978;11.034;2023-04-06T12:24:20;12.50;60.80
25058;DHT22;13057;50.978;11.034;2023-04-06T12:26:46;12.60;59.20
25058;DHT22;13057;50.978;11.034;2023-04-06T12:29:12;12.40;58.20
25058;DHT22;13057;50.978;11.034;2023-04-06T12:31:39;12.40;59.80
25058;DHT22;13057;50.978;11.034;2023-04-06T12:34:07;12.50;61.80
25058;DHT22;13057;50.978;11.034;2023-04-06T12:36:33;12.60;60.80
25058;DHT22;13057;50.978;11.034;2023-04-06T12:38:59;12.70;61.10
25058;DHT22;13057;50.978;11.034;2023-04-06T12:41:29;12.70;60.10
25058;DHT22;13057;50.978;11.034;2023-04-06T12:43:55;12.70;60.30
25058;DHT22;13057;50.978;11.034;2023-04-06T12:46:22;12.70;60.00
25058;DHT22;13057;50.978;11.034;2023-04-06T12:48:48;12.60;59.80
25058;DHT22;13057;50.978;11.034;2023-04-06T12:51:14;12.60;60.60
25058;DHT22;13057;50.978;11.034;2023-04-06T12:53:41;12.60;60.30
25058;DHT22;13057;50.978;11.034;2023-04-06T12:56:14;12.60;61.40
25058;DHT22;13057;50.978;11.034;2023-04-06T12:58:41;12.60;59.80
25058;DHT22;13057;50.978;11.034;2023-04-06T13:01:07;12.70;60.30
25058;DHT22;13057;50.978;11.034;2023-04-06T13:03:34;12.70;60.40
25058;DHT22;13057;50.978;11.034;2023-04-06T13:06:01;12.70;60.60
25058;DHT22;13057;50.978;11.034;2023-04-06T13:08:27;12.80;60.90
25058;DHT22;13057;50.978;11.034;2023-04-06T13:10:54;12.90;60.40
25058;DHT22;13057;50.978;11.034;2023-04-06T13:13:25;12.90;60.40
25058;DHT22;13057;50.978;11.034;2023-04-06T13:15:53;12.90;60.20
25058;DHT22;13057;50.978;11.034;2023-04-06T13:18:19;12.80;58.80
25058;DHT22;13057;50.978;11.034;2023-04-06T13:20:47;12.70;59.30
25058;DHT22;13057;50.978;11.034;2023-04-06T13:23:13;12.70;60.00
25058;DHT22;13057;50.978;11.034;2023-04-06T13:25:39;12.70;60.40
25058;DHT22;13057;50.978;11.034;2023-04-06T13:28:08;12.70;58.90
25058;DHT22;13057;50.978;11.034;2023-04-06T13:30:33;12.80;60.80
25058;DHT22;13057;50.978;11.034;2023-04-06T13:33:00;12.90;60.10
25058;DHT22;13057;50.978;11.034;2023-04-06T13:35:26;12.80;59.80
25058;DHT22;13057;50.978;11.034;2023-04-06T13:37:52;12.80;59.30
25058;DHT22;13057;50.978;11.034;2023-04-06T13:40:18;12.80;60.30
25058;DHT22;13057;50.978;11.034;2023-04-06T13:42:44;12.90;61.80
25058;DHT22;13057;50.978;11.034;2023-04-06T13:45:11;12.90;61.50
25058;DHT22;13057;50.978;11.034;2023-04-06T13:47:37;12.80;59.80
25058;DHT22;13057;50.978;11.034;2023-04-06T13:50:04;12.70;59.80
25058;DHT22;13057;50.978;11.034;2023-04-06T13:52:30;12.80;61.40
25058;DHT22;13057;50.978;11.034;2023-04-06T13:54:56;12.80;62.60
25058;DHT22;13057;50.978;11.034;2023-04-06T13:57:22;12.80;61.30
25058;DHT22;13057;50.978;11.034;2023-04-06T13:59:48;12.80;62.40
25058;DHT22;13057;50.978;11.034;2023-04-06T14:02:16;12.70;62.30
25058;DHT22;13057;50.978;11.034;2023-04-06T14:04:42;12.70;62.30
25058;DHT22;13057;50.978;11.034;2023-04-06T14:07:08;12.80;64.50
25058;DHT22;13057;50.978;11.034;2023-04-06T14:09:34;12.80;61.60
25058;DHT22;13057;50.978;11.034;2023-04-06T14:12:00;12.80;62.80
25058;DHT22;13057;50.978;11.034;2023-04-06T14:14:26;12.90;61.40
25058;DHT22;13057;50.978;11.034;2023-04-06T14:16:52;12.90;61.30
25058;DHT22;13057;50.978;11.034;2023-04-06T14:19:18;12.90;61.20
25058;DHT22;13057;50.978;11.034;2023-04-06T14:21:44;13.00;61.40
25058;DHT22;13057;50.978;11.034;2023-04-06T14:24:11;13.10;62.60
25058;DHT22;13057;50.978;11.034;2023-04-06T14:26:38;13.20;61.90
25058;DHT22;13057;50.978;11.034;2023-04-06T14:29:05;13.20;61.60
25058;DHT22;13057;50.978;11.034;2023-04-06T14:31:38;13.20;60.90
25058;DHT22;13057;50.978;11.034;2023-04-06T14:34:04;13.20;60.60
25058;DHT22;13057;50.978;11.034;2023-04-06T14:36:32;13.10;61.40
25058;DHT22;13057;50.978;11.034;2023-04-06T14:39:05;13.10;60.80
25058;DHT22;13057;50.978;11.034;2023-04-06T14:41:33;13.10;60.40
25058;DHT22;13057;50.978;11.034;2023-04-06T14:44:01;13.00;59.40
25058;DHT22;13057;50.978;11.034;2023-04-06T14:46:27;13.00;60.50
25058;DHT22;13057;50.978;11.034;2023-04-06T14:48:56;13.00;62.20
25058;DHT22;13057;50.978;11.034;2023-04-06T14:51:25;13.00;61.80
25058;DHT22;13057;50.978;11.034;2023-04-06T14:53:54;13.00;61.80
25058;DHT22;13057;50.978;11.034;2023-04-06T14:56:22;13.00;61.00
25058;DHT22;13057;50.978;11.034;2023-04-06T14:58:50;13.00;61.80
25058;DHT22;13057;50.978;11.034;2023-04-06T15:01:18;13.00;62.00
25058;DHT22;13057;50.978;11.034;2023-04-06T15:03:44;13.10;61.00
25058;DHT22;13057;50.978;11.034;2023-04-06T15:06:13;13.00;61.10
25058;DHT22;13057;50.978;11.034;2023-04-06T15:08:42;13.10;61.70
25058;DHT22;13057;50.978;11.034;2023-04-06T15:11:08;13.10;60.70
25058;DHT22;13057;50.978;11.034;2023-04-06T15:13:35;13.10;59.60
25058;DHT22;13057;50.978;11.034;2023-04-06T15:16:00;13.10;59.30
25058;DHT22;13057;50.978;11.034;2023-04-06T15:18:26;13.10;59.60
25058;DHT22;13057;50.978;11.034;2023-04-06T15:20:53;13.10;60.40
25058;DHT22;13057;50.978;11.034;2023-04-06T15:23:19;13.10;60.60